Airfield :
LOGIN :

Register | Disclaimer

   EN    FR    IT 

 










Legend :    VFR   Marginal VFR   IFR   Intensive IFR   Very Intensive IFR
Visi :
Ceiling :
>= 8 km
>= 3000ft
5 to 8 km
1000 to 3000 ft
1500m to 5 km
500 to 1000 ft
800 to 1500m
200 to 500 ft
< 800m
< 200 ft
Symbols :   Thunderstorms  Fog  Heavy snow  Heavy precipitations  Wind > 20 kt
SIGMETs :     Misc.  Thunderstorms  Icing  Turbulence  Mountain Waves  Volcanic Ashes






- Airport Elevation : 935 ft


EBFS - Florennes

CURRENT METAR :
  • 250855Z 22011KT 9999 SCT080 BKN280 16/09 Q1019 BLU BLU

EXPIRED METARs :
  • 250825Z 21011KT 9999 SCT080 BKN280 16/08 Q1019 BLU BLU
  • 250755Z 22008KT 9999 SCT090 BKN280 16/10 Q1019 BLU BLU
  • 250725Z 23008KT 9999 SCT090 BKN280 15/10 Q1020 BLU BLU TEMPO WHT
  • 250655Z 24008KT 9999 SCT090 BKN280 14/09 Q1020 BLU BLU TEMPO WHT
  • 250625Z 21007KT 9000 SCT090 BKN280 13/09 Q1019 BLU BLU TEMPO WHT

TAF TAF EBFS
Valid from the 25 at 07:00 until the 25 at 16:00 UTC


250541Z 2507/2516 23005KT 7000 SCT100 BKN280
TEMPO 2507/2510 VRB01KT
BECMG 2509/2511 9999 FEW020 BKN040 OVC100



MET'MAP, your aeronautical weather chart ! - Copyright ORBIFLY December 2007 - Disclaimer

ORBIFLY MET'MAP TEAM :

Programming & Development : Alexandra Zaïnal
Concept & original design : Baudouin d'Aumeries
Assistance for programming : Marc-Olivier Méhu
Technical & hardware support : Manuel Goepfert

Contact : metmap@orbifly.com




SOURCES & CREDITS :

   NOAA